Time;durP1;ratioP1;P1;durP2;ratioP2;P2;SDS_P1;SDS_P2;PMS_P1;PMS_P2;Temp;Humidity;BMP_temperature;BMP_pressure;BME280_temperature;BME280_humidity;BME280_pressure;Samples;Min_cycle;Max_cycle;Signal;HPM_P1;HPM_P2
2023/09/24 00:02:28;;;;;;;3.72;1.10;;;21.90;81.20;;;;;;5966485;22;45976;-56
2023/09/24 00:04:54;;;;;;;3.50;1.13;;;21.90;81.00;;;;;;5961175;22;45471;-55
2023/09/24 00:07:21;;;;;;;3.42;1.10;;;21.90;81.00;;;;;;5947983;22;45490;-56
2023/09/24 00:10:10;;;;;;;3.15;0.90;;;21.90;81.00;;;;;;5948187;22;45319;-55
2023/09/24 00:13:15;;;;;;;2.45;1.10;;;21.90;80.70;;;;;;5953173;22;46691;-55
2023/09/24 00:15:53;;;;;;;3.05;1.17;;;21.90;80.50;;;;;;5935322;22;45550;-55
2023/09/24 00:18:48;;;;;;;2.60;1.10;;;21.90;80.40;;;;;;5947492;22;45539;-55
2023/09/24 00:21:36;;;;;;;2.50;0.93;;;21.90;80.20;;;;;;5934282;22;45495;-55
2023/09/24 00:24:31;;;;;;;1.70;1.00;;;21.90;80.10;;;;;;5977013;22;45925;-55
2023/09/24 00:27:14;;;;;;;2.25;1.00;;;21.90;79.90;;;;;;5945062;22;45456;-55
2023/09/24 00:29:48;;;;;;;3.20;0.98;;;21.90;79.90;;;;;;5937398;22;45547;-55
2023/09/24 00:32:43;;;;;;;1.48;0.85;;;21.90;79.90;;;;;;5973306;22;45356;-55
2023/09/24 00:35:28;;;;;;;2.03;1.08;;;21.90;79.90;;;;;;5995581;22;45586;-55
2023/09/24 00:37:55;;;;;;;2.05;1.05;;;21.90;79.90;;;;;;6005550;22;45474;-55
2023/09/24 00:40:24;;;;;;;3.70;1.23;;;21.90;79.90;;;;;;5963667;22;45132;-56
2023/09/24 00:42:52;;;;;;;2.35;1.35;;;21.90;79.90;;;;;;5968490;22;45380;-56
2023/09/24 00:45:50;;;;;;;1.00;0.70;;;21.90;80.00;;;;;;5965498;22;45971;-55
2023/09/24 00:48:34;;;;;;;3.45;1.13;;;21.90;79.90;;;;;;5982227;22;45790;-55
2023/09/24 00:51:30;;;;;;;1.63;0.95;;;21.90;79.90;;;;;;5964025;22;45576;-55
2023/09/24 00:54:15;;;;;;;2.15;0.93;;;21.90;79.90;;;;;;5935092;22;45375;-55
2023/09/24 00:57:13;;;;;;;2.65;0.80;;;21.90;79.90;;;;;;5956274;22;45989;-55
2023/09/24 01:00:11;;;;;;;1.90;0.80;;;21.90;79.90;;;;;;5936679;22;45913;-55
2023/09/24 01:02:47;;;;;;;2.05;0.90;;;21.90;79.90;;;;;;5940196;22;45321;-56
2023/09/24 01:05:27;;;;;;;1.23;0.80;;;21.90;79.90;;;;;;5941476;22;45326;-55
2023/09/24 01:07:55;;;;;;;3.08;0.85;;;21.90;79.90;;;;;;5938737;22;46628;-55
2023/09/24 01:10:48;;;;;;;3.00;1.00;;;21.80;79.80;;;;;;5925503;22;45361;-55
2023/09/24 01:13:20;;;;;;;2.33;1.13;;;21.80;79.90;;;;;;5911973;22;45350;-55
2023/09/24 01:16:04;;;;;;;4.03;1.00;;;21.80;79.80;;;;;;5920244;22;45490;-55
2023/09/24 01:25:40;;;;;;;1.10;0.60;;;21.80;79.60;;;;;;5925030;22;45340;-55
2023/09/24 01:28:08;;;;;;;1.85;0.73;;;21.90;79.40;;;;;;5933464;22;45458;-55
2023/09/24 01:31:08;;;;;;;4.88;0.90;;;21.90;79.40;;;;;;5965552;22;45274;-52
2023/09/24 01:33:38;;;;;;;2.25;0.98;;;21.90;79.20;;;;;;5925605;22;45558;-53
2023/09/24 01:36:21;;;;;;;2.95;1.10;;;21.90;79.10;;;;;;5939411;22;45250;-52
2023/09/24 01:38:58;;;;;;;2.03;0.68;;;21.90;79.00;;;;;;5931376;22;45425;-53
2023/09/24 01:41:52;;;;;;;2.03;1.00;;;21.90;79.10;;;;;;5903264;22;46256;-52
2023/09/24 01:44:41;;;;;;;1.42;0.90;;;21.90;78.80;;;;;;5946592;22;45227;-53
2023/09/24 01:50:16;;;;;;;1.85;1.05;;;21.80;78.70;;;;;;5901686;22;45094;-53
2023/09/24 01:53:02;;;;;;;1.27;0.80;;;21.90;78.80;;;;;;5914601;22;46323;-52
2023/09/24 01:55:58;;;;;;;3.75;0.95;;;21.90;78.70;;;;;;5989460;22;45080;-52
2023/09/24 01:58:25;;;;;;;1.88;0.73;;;21.90;78.50;;;;;;5918627;22;45333;-52
2023/09/24 02:01:02;;;;;;;2.28;1.17;;;21.90;78.70;;;;;;5946772;22;45522;-53
2023/09/24 02:03:49;;;;;;;2.00;1.00;;;21.80;78.60;;;;;;5964239;22;46452;-52
2023/09/24 02:06:16;;;;;;;4.43;1.45;;;21.90;78.50;;;;;;5976801;22;45079;-53
2023/09/24 02:09:01;;;;;;;1.45;0.88;;;21.90;78.70;;;;;;5930284;22;45375;-53
2023/09/24 02:11:29;;;;;;;2.40;1.20;;;21.80;78.50;;;;;;5945151;22;45419;-53
2023/09/24 02:13:57;;;;;;;2.03;0.98;;;21.90;78.50;;;;;;5929565;22;46815;-53
2023/09/24 02:16:29;;;;;;;1.88;0.85;;;21.80;78.50;;;;;;5945481;22;45444;-53
2023/09/24 02:19:35;;;;;;;3.58;0.98;;;21.80;79.40;;;;;;5911932;22;45368;-53
2023/09/24 02:22:23;;;;;;;2.28;1.00;;;21.80;78.10;;;;;;5953111;22;45235;-52
2023/09/24 02:25:13;;;;;;;1.90;0.90;;;21.80;78.00;;;;;;5999692;22;46537;-52
2023/09/24 02:28:19;;;;;;;2.47;1.13;;;21.80;78.00;;;;;;5948640;22;45130;-52
2023/09/24 02:30:47;;;;;;;3.30;1.10;;;21.80;78.00;;;;;;5985291;22;45211;-53
2023/09/24 02:33:42;;;;;;;3.75;0.95;;;21.80;78.00;;;;;;5990975;22;45445;-52
2023/09/24 02:36:09;;;;;;;2.25;1.17;;;21.80;78.00;;;;;;5989077;22;46749;-53
2023/09/24 02:38:35;;;;;;;2.75;1.00;;;21.80;78.10;;;;;;5991242;22;45495;-53
2023/09/24 02:41:28;;;;;;;1.58;0.82;;;21.80;77.80;;;;;;5985390;22;45243;-53
2023/09/24 02:44:01;;;;;;;2.40;0.95;;;21.80;77.70;;;;;;5972645;22;45530;-53
2023/09/24 02:47:10;;;;;;;4.72;0.93;;;21.80;77.70;;;;;;5973607;22;45622;-53
2023/09/24 02:49:40;;;;;;;1.67;1.08;;;21.80;77.60;;;;;;5954382;22;45385;-52
2023/09/24 02:52:16;;;;;;;2.95;1.10;;;21.80;77.50;;;;;;5971944;22;45245;-53
2023/09/24 02:55:04;;;;;;;2.35;1.05;;;21.80;77.50;;;;;;5946373;22;45272;-52
2023/09/24 02:57:53;;;;;;;1.65;0.85;;;21.80;77.30;;;;;;5923347;22;46310;-52
2023/09/24 03:03:06;;;;;;;1.48;0.85;;;21.80;77.30;;;;;;5916175;22;45069;-53
2023/09/24 03:05:33;;;;;;;2.33;1.00;;;21.80;77.30;;;;;;5911971;22;45239;-53
2023/09/24 03:11:35;;;;;;;2.38;1.00;;;21.80;77.10;;;;;;5919942;22;45452;-52
2023/09/24 03:14:15;;;;;;;1.52;0.90;;;21.80;77.10;;;;;;5953194;22;45439;-53
2023/09/24 03:17:16;;;;;;;2.08;0.90;;;21.80;77.20;;;;;;5943729;22;45380;-52
2023/09/24 03:19:43;;;;;;;3.50;1.38;;;21.80;77.10;;;;;;5947686;22;46281;-53
2023/09/24 03:22:39;;;;;;;3.35;1.30;;;21.80;78.10;;;;;;5952682;22;45386;-52
2023/09/24 03:25:11;;;;;;;2.13;0.82;;;21.80;76.90;;;;;;5934811;22;45187;-53
2023/09/24 03:28:19;;;;;;;1.67;0.90;;;21.80;76.80;;;;;;5890514;22;45720;-53
2023/09/24 03:31:02;;;;;;;2.28;1.10;;;21.80;75.50;;;;;;5994863;22;47639;-52
2023/09/24 03:34:04;;;;;;;2.83;1.02;;;21.70;73.80;;;;;;5934186;22;45506;-52
2023/09/24 03:36:53;;;;;;;8.65;1.40;;;21.60;72.00;;;;;;5961443;22;45390;-52
2023/09/24 03:39:43;;;;;;;1.77;1.10;;;21.60;71.00;;;;;;6015108;22;45820;-52
2023/09/24 03:42:21;;;;;;;1.98;1.20;;;21.60;72.20;;;;;;5944047;22;47663;-53
2023/09/24 03:44:48;;;;;;;2.80;1.00;;;21.60;72.10;;;;;;5924270;22;45440;-53
2023/09/24 03:50:09;;;;;;;2.20;1.20;;;21.70;72.70;;;;;;5901015;22;45484;-52
2023/09/24 03:52:38;;;;;;;2.33;1.13;;;21.70;72.80;;;;;;5943818;22;46357;-53
2023/09/24 03:55:07;;;;;;;2.40;1.23;;;21.70;73.00;;;;;;5935365;22;45356;-52
2023/09/24 03:57:55;;;;;;;1.45;1.00;;;21.70;73.10;;;;;;5929166;22;45239;-52
2023/09/24 04:03:33;;;;;;;0.93;0.80;;;21.70;73.30;;;;;;5936265;22;45458;-52
2023/09/24 04:06:30;;;;;;;2.85;1.23;;;21.70;73.30;;;;;;5953384;22;45180;-52
2023/09/24 04:09:33;;;;;;;1.88;1.17;;;21.70;73.30;;;;;;5958265;22;45678;-52
2023/09/24 04:12:00;;;;;;;1.40;1.05;;;21.80;73.50;;;;;;5936559;22;45285;-52
2023/09/24 04:15:06;;;;;;;1.90;0.90;;;21.70;73.50;;;;;;5941728;22;46561;-52
2023/09/24 04:18:12;;;;;;;1.00;0.70;;;21.70;73.40;;;;;;5941275;22;45368;-52
2023/09/24 04:20:57;;;;;;;2.25;0.98;;;21.80;73.50;;;;;;5951683;22;45233;-52
2023/09/24 04:23:57;;;;;;;1.80;0.90;;;21.70;73.50;;;;;;5921523;22;45290;-52
2023/09/24 04:26:36;;;;;;;1.95;0.98;;;21.70;73.50;;;;;;5953243;22;45451;-52
2023/09/24 04:29:03;;;;;;;2.50;0.93;;;21.70;73.50;;;;;;5905562;22;45272;-53
2023/09/24 04:31:43;;;;;;;3.22;1.40;;;21.70;73.60;;;;;;5947596;22;45581;-52
2023/09/24 04:34:12;;;;;;;1.25;0.70;;;21.70;73.50;;;;;;5916912;22;45385;-53
2023/09/24 04:42:11;;;;;;;1.65;0.88;;;21.70;73.50;;;;;;5909811;22;45997;-52
2023/09/24 04:44:41;;;;;;;1.73;0.80;;;21.70;73.60;;;;;;5932820;22;45309;-52
2023/09/24 04:47:12;;;;;;;2.25;0.90;;;21.70;73.50;;;;;;5948018;22;48245;-52
2023/09/24 04:50:02;;;;;;;1.63;1.00;;;21.70;73.40;;;;;;5940108;22;45445;-52
2023/09/24 04:52:44;;;;;;;1.25;0.82;;;21.70;73.30;;;;;;5925843;22;45403;-52
2023/09/24 04:55:30;;;;;;;1.52;0.80;;;21.70;73.50;;;;;;5933722;22;45448;-53
2023/09/24 04:57:57;;;;;;;1.90;0.90;;;21.70;73.30;;;;;;5946153;22;47212;-52
2023/09/24 05:00:50;;;;;;;2.08;0.80;;;21.70;73.30;;;;;;5977790;22;45184;-52
2023/09/24 05:03:34;;;;;;;3.50;1.10;;;21.70;73.10;;;;;;5916516;22;45327;-52
2023/09/24 05:06:10;;;;;;;1.60;0.93;;;21.70;73.10;;;;;;5925332;22;45517;-52
2023/09/24 05:08:38;;;;;;;2.17;0.90;;;21.70;73.30;;;;;;5938161;22;46789;-52
2023/09/24 05:14:57;;;;;;;1.00;0.63;;;21.70;74.10;;;;;;5874144;22;45466;-52
2023/09/24 05:17:24;;;;;;;2.22;0.95;;;21.70;73.00;;;;;;5925511;22;45385;-52
2023/09/24 05:20:28;;;;;;;1.55;0.95;;;21.70;73.10;;;;;;5909643;22;47240;-52
2023/09/24 05:23:10;;;;;;;1.88;1.08;;;21.80;73.10;;;;;;5918200;22;45885;-52
2023/09/24 05:25:39;;;;;;;3.35;1.15;;;21.70;72.90;;;;;;5946696;22;45415;-52
2023/09/24 05:28:45;;;;;;;3.47;1.00;;;21.70;72.90;;;;;;6019533;22;45344;-52
2023/09/24 05:31:12;;;;;;;1.30;0.82;;;21.70;72.90;;;;;;5931605;22;45406;-53
2023/09/24 05:33:44;;;;;;;2.40;1.10;;;21.70;72.90;;;;;;5936940;22;45242;-53
2023/09/24 05:36:47;;;;;;;1.77;0.88;;;21.70;72.90;;;;;;5929390;22;45664;-52
2023/09/24 05:42:14;;;;;;;1.30;0.90;;;21.70;72.80;;;;;;6008032;22;46116;-53
2023/09/24 05:45:19;;;;;;;1.15;0.70;;;21.70;72.50;;;;;;6013092;22;45159;-53
2023/09/24 05:48:09;;;;;;;2.35;1.25;;;21.70;72.40;;;;;;5977774;22;45070;-52
2023/09/24 05:50:48;;;;;;;1.60;1.05;;;21.70;72.40;;;;;;5945048;22;45566;-53
2023/09/24 05:53:36;;;;;;;1.17;0.85;;;21.70;72.40;;;;;;5931091;22;46381;-52
2023/09/24 05:56:18;;;;;;;3.30;1.00;;;21.70;72.80;;;;;;5940998;22;45365;-52
2023/09/24 05:58:46;;;;;;;1.88;0.80;;;21.70;72.50;;;;;;5932655;22;45265;-53
2023/09/24 06:01:22;;;;;;;2.08;1.10;;;21.70;72.60;;;;;;5924236;22;45283;-52
2023/09/24 06:04:06;;;;;;;2.17;0.90;;;21.70;72.60;;;;;;5941474;22;46585;-53
2023/09/24 06:06:47;;;;;;;1.88;1.00;;;21.70;72.40;;;;;;5924601;22;45198;-53
2023/09/24 06:09:16;;;;;;;2.92;1.05;;;21.70;72.40;;;;;;5929571;22;45424;-53
2023/09/24 06:12:22;;;;;;;2.88;1.13;;;21.70;72.30;;;;;;5940754;22;45529;-52
2023/09/24 06:14:48;;;;;;;2.78;1.20;;;21.70;72.10;;;;;;5921483;22;45374;-53
2023/09/24 06:17:47;;;;;;;2.47;1.13;;;21.70;72.20;;;;;;5927727;22;45834;-52
2023/09/24 06:20:43;;;;;;;2.40;1.00;;;21.70;72.00;;;;;;5943732;22;45461;-53
2023/09/24 06:23:29;;;;;;;2.17;1.10;;;21.70;72.00;;;;;;5918449;22;45228;-53
2023/09/24 06:26:38;;;;;;;1.27;0.90;;;21.70;72.00;;;;;;5955419;22;45390;-52
2023/09/24 06:29:28;;;;;;;3.50;1.23;;;21.70;72.00;;;;;;5917915;22;45492;-54
2023/09/24 06:32:32;;;;;;;2.90;1.00;;;21.70;72.00;;;;;;5942733;22;45184;-52
2023/09/24 06:35:25;;;;;;;1.73;0.88;;;21.70;72.20;;;;;;5948772;22;45451;-53
2023/09/24 06:37:54;;;;;;;1.30;0.77;;;21.70;72.10;;;;;;5911626;22;45473;-52
2023/09/24 06:40:22;;;;;;;1.30;0.80;;;21.70;72.30;;;;;;5917357;22;45120;-53
2023/09/24 06:43:37;;;;;;;1.92;0.82;;;21.70;72.20;;;;;;5931769;22;45418;-53
2023/09/24 06:46:32;;;;;;;2.15;1.13;;;21.70;72.20;;;;;;5965963;22;45258;-52
2023/09/24 06:49:26;;;;;;;2.45;0.90;;;21.70;72.20;;;;;;5986359;22;45661;-53
2023/09/24 06:52:15;;;;;;;1.77;0.93;;;21.70;72.30;;;;;;5935440;22;45186;-54
2023/09/24 06:55:20;;;;;;;10.82;1.75;;;21.70;72.30;;;;;;5948409;22;45452;-54
2023/09/24 06:58:14;;;;;;;8.35;1.42;;;21.70;73.20;;;;;;5917853;22;45269;-54
2023/09/24 07:00:57;;;;;;;4.05;1.13;;;21.70;73.20;;;;;;5963152;22;46593;-55
2023/09/24 07:03:44;;;;;;;4.93;1.00;;;21.70;73.00;;;;;;5927102;22;45313;-55
2023/09/24 07:06:30;;;;;;;2.35;1.05;;;21.70;72.80;;;;;;5932375;22;45393;-55
2023/09/24 07:08:58;;;;;;;2.97;0.80;;;21.70;72.80;;;;;;5957708;22;45571;-54
2023/09/24 07:11:50;;;;;;;1.67;0.80;;;21.80;72.90;;;;;;5958442;22;46224;-54
2023/09/24 07:14:19;;;;;;;2.95;0.90;;;21.80;72.90;;;;;;5915821;22;45438;-55
2023/09/24 07:17:01;;;;;;;3.22;0.93;;;21.80;73.00;;;;;;5975859;22;45182;-56
2023/09/24 07:19:28;;;;;;;3.95;0.90;;;21.80;73.00;;;;;;5950252;22;45313;-56
2023/09/24 07:21:58;;;;;;;1.60;0.80;;;21.80;73.00;;;;;;5935350;22;45475;-55
2023/09/24 07:25:01;;;;;;;1.90;0.80;;;21.80;73.00;;;;;;5970388;22;45253;-54
2023/09/24 07:27:58;;;;;;;2.33;0.70;;;21.80;73.00;;;;;;5965638;22;45408;-54
2023/09/24 07:30:52;;;;;;;0.98;0.70;;;21.80;73.10;;;;;;5932444;22;45135;-54
2023/09/24 07:33:21;;;;;;;1.25;0.60;;;21.80;73.30;;;;;;5917461;22;46990;-55
2023/09/24 07:36:06;;;;;;;1.60;0.70;;;21.80;73.30;;;;;;5936246;22;45784;-54
2023/09/24 07:39:20;;;;;;;1.55;0.63;;;21.80;73.30;;;;;;5909124;22;45549;-54
2023/09/24 07:41:49;;;;;;;2.05;0.80;;;21.80;73.50;;;;;;5915807;22;45291;-56
2023/09/24 07:44:18;;;;;;;2.05;0.85;;;21.80;73.50;;;;;;5966617;22;46749;-56
2023/09/24 07:50:58;;;;;;;2.60;0.98;;;21.90;73.60;;;;;;5967109;22;45445;-54
2023/09/24 07:53:26;;;;;;;5.43;1.20;;;21.90;73.80;;;;;;6011405;22;45309;-55
2023/09/24 07:56:15;;;;;;;9.07;1.25;;;21.90;74.10;;;;;;5987617;22;45522;-54
2023/09/24 07:59:05;;;;;;;1.83;0.75;;;21.90;74.20;;;;;;5964135;22;45498;-54
2023/09/24 08:01:52;;;;;;;4.57;1.02;;;21.90;74.40;;;;;;5926750;22;45596;-54
2023/09/24 08:04:21;;;;;;;4.45;0.93;;;21.90;74.40;;;;;;5916023;22;45632;-54
2023/09/24 08:06:50;;;;;;;1.48;0.80;;;21.90;74.60;;;;;;5927893;22;46231;-54
2023/09/24 08:09:59;;;;;;;1.13;0.73;;;21.90;74.60;;;;;;5929767;22;45241;-53
2023/09/24 08:15:48;;;;;;;3.10;0.88;;;21.90;74.70;;;;;;5937724;22;45473;-54
2023/09/24 08:18:39;;;;;;;5.35;1.00;;;21.90;74.70;;;;;;5940251;22;45228;-54
2023/09/24 08:21:29;;;;;;;1.35;0.75;;;21.90;74.60;;;;;;5934791;22;45271;-54
2023/09/24 08:24:28;;;;;;;2.40;0.90;;;21.90;74.50;;;;;;5944099;22;45468;-54
2023/09/24 08:26:58;;;;;;;3.10;0.70;;;21.90;74.60;;;;;;5942725;22;45402;-55
2023/09/24 08:32:44;;;;;;;1.98;0.90;;;22.00;74.50;;;;;;5928098;22;45385;-55
2023/09/24 08:35:11;;;;;;;1.35;0.60;;;22.00;74.50;;;;;;5938098;22;45820;-54
2023/09/24 08:37:48;;;;;;;2.05;0.80;;;22.00;74.50;;;;;;5924827;22;45181;-54
2023/09/24 08:40:42;;;;;;;1.92;1.00;;;22.10;74.70;;;;;;5935365;22;45945;-56
2023/09/24 08:43:11;;;;;;;1.92;0.77;;;22.00;74.50;;;;;;5935260;22;45640;-54
2023/09/24 08:45:38;;;;;;;1.77;0.70;;;22.00;74.40;;;;;;5959749;22;45195;-54
2023/09/24 08:48:29;;;;;;;2.63;0.90;;;22.10;74.50;;;;;;5912197;22;45328;-54
2023/09/24 08:51:19;;;;;;;2.38;0.73;;;22.10;74.70;;;;;;5970460;22;45470;-53
2023/09/24 08:56:31;;;;;;;2.33;0.80;;;22.10;74.80;;;;;;5905780;22;45557;-54
2023/09/24 08:58:57;;;;;;;1.60;0.70;;;22.00;74.90;;;;;;5951026;22;45226;-55
2023/09/24 09:05:52;;;;;;;0.90;0.50;;;22.10;75.00;;;;;;5805276;22;45697;-54
2023/09/24 09:08:19;;;;;;;1.90;0.65;;;22.10;74.90;;;;;;5951713;22;45335;-54
2023/09/24 09:11:14;;;;;;;1.67;0.70;;;22.10;75.10;;;;;;5947991;22;45755;-54
2023/09/24 09:14:14;;;;;;;1.85;0.70;;;22.10;75.00;;;;;;5969488;22;45954;-53
2023/09/24 09:17:08;;;;;;;3.65;0.60;;;22.20;75.00;;;;;;5926454;22;45279;-54
2023/09/24 09:23:44;;;;;;;1.92;0.68;;;22.20;75.10;;;;;;5889558;22;45728;-54
2023/09/24 09:30:33;;;;;;;1.60;0.77;;;22.20;75.20;;;;;;5886221;22;45546;-54
2023/09/24 09:33:36;;;;;;;2.17;0.80;;;22.20;75.30;;;;;;5937345;22;45177;-55
2023/09/24 09:36:20;;;;;;;1.15;0.63;;;22.20;75.60;;;;;;5935565;22;45259;-55
2023/09/24 09:39:13;;;;;;;1.48;0.70;;;22.20;75.60;;;;;;5931744;22;46755;-54
2023/09/24 09:41:58;;;;;;;1.08;0.65;;;22.20;75.70;;;;;;5925456;22;45098;-55
2023/09/24 09:47:20;;;;;;;3.30;1.00;;;22.10;76.10;;;;;;5936237;22;45971;-54
2023/09/24 09:52:56;;;;;;;1.52;0.60;;;22.20;76.50;;;;;;5919199;22;45767;-54
2023/09/24 09:55:38;;;;;;;1.10;0.63;;;22.10;76.40;;;;;;5966040;22;45305;-54
2023/09/24 09:58:19;;;;;;;1.58;0.70;;;22.20;76.60;;;;;;5930227;22;45237;-54
2023/09/24 10:01:02;;;;;;;1.20;0.60;;;22.10;76.60;;;;;;5946517;22;46255;-54
2023/09/24 10:04:04;;;;;;;2.78;0.80;;;22.10;76.60;;;;;;5935003;22;45562;-54
2023/09/24 10:07:14;;;;;;;1.83;0.85;;;22.10;76.80;;;;;;5907305;22;45309;-54
2023/09/24 10:15:25;;;;;;;3.13;0.73;;;22.10;77.00;;;;;;5878748;22;45388;-55
2023/09/24 10:18:43;;;;;;;0.80;0.40;;;22.10;77.00;;;;;;5925992;22;45423;-55
2023/09/24 10:21:27;;;;;;;1.05;0.50;;;22.10;77.10;;;;;;5930534;22;45356;-54
2023/09/24 10:24:45;;;;;;;0.95;0.60;;;22.10;77.10;;;;;;5926206;22;46495;-54
2023/09/24 10:27:33;;;;;;;2.00;0.65;;;22.10;77.00;;;;;;5938767;22;45325;-55
2023/09/24 10:33:53;;;;;;;1.17;0.70;;;22.10;75.70;;;;;;5913283;22;45154;-54
2023/09/24 10:36:43;;;;;;;3.55;1.10;;;22.00;74.40;;;;;;5889950;22;47296;-54
2023/09/24 10:39:21;;;;;;;2.22;0.77;;;22.00;73.40;;;;;;5899974;22;45273;-54
2023/09/24 10:42:17;;;;;;;1.85;0.80;;;22.00;72.70;;;;;;5963817;22;45216;-54
2023/09/24 10:45:21;;;;;;;2.63;0.80;;;22.00;72.10;;;;;;5915389;22;45381;-55
2023/09/24 10:50:29;;;;;;;1.88;0.88;;;22.00;73.80;;;;;;5884175;22;45344;-55
2023/09/24 10:53:28;;;;;;;1.70;0.50;;;22.10;74.10;;;;;;5894714;22;44892;-54
2023/09/24 10:56:29;;;;;;;1.95;0.90;;;22.10;74.70;;;;;;5883840;22;45455;-54
2023/09/24 10:58:56;;;;;;;0.60;0.50;;;22.10;75.00;;;;;;5917784;22;46253;-55
2023/09/24 11:01:51;;;;;;;1.70;0.57;;;22.10;75.20;;;;;;5914944;22;45347;-55
2023/09/24 11:04:33;;;;;;;1.10;0.75;;;22.10;75.60;;;;;;5889493;22;45498;-55
2023/09/24 11:07:18;;;;;;;1.20;0.63;;;22.10;76.10;;;;;;5917080;22;44999;-55
2023/09/24 11:10:04;;;;;;;0.65;0.50;;;22.20;76.20;;;;;;5935630;22;45357;-54
2023/09/24 11:12:42;;;;;;;0.93;0.50;;;22.10;76.10;;;;;;5916862;22;45319;-55
2023/09/24 11:15:47;;;;;;;0.43;0.43;;;22.10;76.00;;;;;;6028751;22;45327;-54
2023/09/24 11:21:40;;;;;;;1.10;0.68;;;22.10;77.00;;;;;;5870952;22;45287;-55
2023/09/24 11:24:42;;;;;;;1.02;0.55;;;22.10;77.10;;;;;;5934928;22;45047;-55
2023/09/24 11:27:11;;;;;;;0.70;0.60;;;22.10;77.00;;;;;;5897405;22;45134;-54
2023/09/24 11:30:03;;;;;;;2.90;0.73;;;22.10;77.10;;;;;;5950648;22;45325;-54
2023/09/24 11:32:30;;;;;;;1.83;0.70;;;22.10;77.00;;;;;;5926832;22;46817;-57
2023/09/24 11:38:24;;;;;;;0.80;0.50;;;22.10;77.20;;;;;;5917677;22;44915;-60
2023/09/24 11:44:51;;;;;;;2.10;0.75;;;22.10;77.30;;;;;;5914117;22;46185;-61
2023/09/24 11:47:18;;;;;;;1.38;0.82;;;22.10;77.30;;;;;;5933374;22;45286;-61
2023/09/24 11:49:56;;;;;;;1.38;0.80;;;22.10;77.20;;;;;;5921316;22;45373;-61
2023/09/24 11:52:53;;;;;;;1.42;0.70;;;22.10;77.10;;;;;;5932238;22;44902;-60
2023/09/24 11:55:48;;;;;;;1.85;0.68;;;22.10;77.10;;;;;;5922131;22;47394;-60
2023/09/24 11:58:34;;;;;;;1.00;0.40;;;22.10;77.00;;;;;;5966968;22;45349;-63
2023/09/24 12:01:13;;;;;;;0.50;0.30;;;22.10;77.20;;;;;;5907841;22;44897;-62
2023/09/24 12:03:47;;;;;;;0.98;0.57;;;22.10;77.40;;;;;;5949858;22;44788;-63
2023/09/24 12:06:39;;;;;;;1.15;0.55;;;22.10;77.50;;;;;;5938537;22;45551;-63
2023/09/24 12:09:06;;;;;;;2.13;0.60;;;22.20;77.70;;;;;;5924361;22;45206;-61
2023/09/24 12:11:34;;;;;;;0.95;0.55;;;22.20;77.80;;;;;;5950329;22;45324;-63
2023/09/24 12:14:02;;;;;;;3.08;0.73;;;22.20;77.80;;;;;;5961698;22;45388;-63
2023/09/24 12:16:31;;;;;;;0.95;0.40;;;22.20;77.80;;;;;;5978669;22;47183;-62
2023/09/24 12:18:59;;;;;;;1.10;0.50;;;22.20;77.80;;;;;;5951114;22;45210;-63
2023/09/24 12:21:54;;;;;;;3.17;1.00;;;22.20;77.70;;;;;;5963424;22;45233;-63
2023/09/24 12:24:29;;;;;;;1.33;0.70;;;22.20;77.60;;;;;;5936920;22;45067;-62
2023/09/24 12:27:05;;;;;;;0.68;0.50;;;22.20;77.70;;;;;;5954773;22;45841;-61
2023/09/24 12:29:57;;;;;;;1.58;0.57;;;22.20;77.70;;;;;;5955908;22;45055;-62
2023/09/24 12:32:30;;;;;;;1.67;0.50;;;22.20;78.50;;;;;;5934154;22;45524;-62
2023/09/24 12:35:24;;;;;;;2.17;0.70;;;22.20;77.40;;;;;;5912294;22;45326;-61
2023/09/24 12:38:02;;;;;;;1.20;0.70;;;22.20;77.40;;;;;;5954867;22;46521;-61
2023/09/24 12:40:54;;;;;;;2.38;0.70;;;22.30;77.50;;;;;;5997693;22;45228;-61
2023/09/24 12:43:20;;;;;;;2.05;0.70;;;22.20;77.30;;;;;;5936872;22;46100;-61
2023/09/24 12:45:54;;;;;;;1.02;0.65;;;22.20;77.60;;;;;;5968983;22;44823;-61
2023/09/24 12:48:56;;;;;;;1.27;0.70;;;22.20;77.60;;;;;;5911438;22;46390;-61
2023/09/24 12:54:32;;;;;;;2.33;0.85;;;22.20;78.60;;;;;;5925131;22;45697;-61
2023/09/24 12:57:14;;;;;;;1.90;0.70;;;22.20;77.40;;;;;;5927036;22;45181;-61
2023/09/24 13:02:46;;;;;;;1.40;0.70;;;22.20;77.20;;;;;;5918533;22;45157;-61
2023/09/24 13:05:44;;;;;;;1.48;0.65;;;22.20;77.00;;;;;;5934720;22;45404;-61
2023/09/24 13:08:32;;;;;;;3.08;0.70;;;22.20;77.00;;;;;;5924935;22;45162;-61
2023/09/24 13:11:27;;;;;;;2.20;0.63;;;22.20;76.90;;;;;;5916067;22;46300;-61
2023/09/24 13:16:55;;;;;;;1.25;0.70;;;22.20;76.40;;;;;;5919291;22;44910;-61
2023/09/24 13:20:04;;;;;;;0.80;0.50;;;22.20;76.10;;;;;;5959489;22;45028;-61
2023/09/24 13:22:59;;;;;;;1.38;0.47;;;22.20;75.90;;;;;;5910459;22;47374;-61
2023/09/24 13:26:05;;;;;;;1.02;0.50;;;22.20;75.70;;;;;;6011220;22;45244;-61
2023/09/24 13:29:08;;;;;;;1.48;0.60;;;22.20;75.40;;;;;;5941763;22;45345;-61
2023/09/24 13:32:02;;;;;;;1.52;0.52;;;22.20;75.50;;;;;;5953467;22;45095;-61
2023/09/24 13:34:29;;;;;;;1.73;0.70;;;22.20;75.30;;;;;;5944403;22;46850;-61
2023/09/24 13:36:57;;;;;;;1.85;0.77;;;22.20;75.10;;;;;;5957889;22;45168;-61
2023/09/24 13:39:50;;;;;;;1.90;0.40;;;22.20;74.90;;;;;;5943491;22;45661;-60
2023/09/24 13:42:59;;;;;;;0.73;0.60;;;22.20;74.80;;;;;;5945789;22;45791;-60
2023/09/24 13:45:52;;;;;;;1.75;0.70;;;22.20;74.60;;;;;;5949432;22;46696;-61
2023/09/24 13:48:20;;;;;;;1.38;0.60;;;22.20;74.90;;;;;;5965680;22;45113;-62
2023/09/24 13:50:51;;;;;;;1.15;0.50;;;22.20;74.90;;;;;;5937986;22;45451;-61
2023/09/24 13:53:18;;;;;;;0.60;0.45;;;22.20;75.00;;;;;;5948456;22;45321;-61
2023/09/24 13:56:27;;;;;;;3.83;0.63;;;22.20;74.90;;;;;;5925754;22;46450;-61
2023/09/24 13:59:05;;;;;;;0.65;0.40;;;22.20;74.70;;;;;;5870842;22;45172;-61
2023/09/24 14:01:57;;;;;;;2.53;0.50;;;22.20;74.80;;;;;;5923627;22;45360;-61
2023/09/24 14:05:01;;;;;;;1.13;0.50;;;22.20;74.70;;;;;;5903250;22;45259;-61
2023/09/24 14:16:31;;;;;;;1.05;0.50;;;22.20;74.20;;;;;;5891659;22;45328;-61
2023/09/24 14:19:34;;;;;;;0.60;0.40;;;22.20;74.20;;;;;;5937100;22;47260;-61
2023/09/24 14:22:01;;;;;;;1.25;0.47;;;22.20;74.10;;;;;;5926231;22;45366;-61
2023/09/24 14:24:51;;;;;;;1.35;0.45;;;22.20;74.00;;;;;;5945097;22;45075;-61
2023/09/24 14:31:17;;;;;;;0.88;0.52;;;22.20;73.30;;;;;;5893051;22;45441;-61
2023/09/24 14:34:14;;;;;;;0.70;0.50;;;22.20;73.10;;;;;;5923215;22;44924;-61
2023/09/24 14:36:43;;;;;;;0.95;0.43;;;22.20;73.10;;;;;;5943975;22;45152;-61
2023/09/24 14:39:10;;;;;;;0.52;0.30;;;22.20;73.10;;;;;;5904755;22;45296;-61
2023/09/24 14:41:49;;;;;;;1.20;0.52;;;22.20;73.10;;;;;;5929780;22;45341;-61
2023/09/24 14:44:42;;;;;;;0.80;0.45;;;22.20;72.90;;;;;;5933246;22;45134;-61
2023/09/24 14:48:20;;;;;;;1.75;0.20;;;22.20;72.60;;;;;;5886769;22;45253;-61
2023/09/24 14:57:33;;;;;;;1.20;0.40;;;22.10;72.80;;;;;;5921468;22;45110;-61
2023/09/24 15:00:03;;;;;;;1.00;0.40;;;22.10;72.50;;;;;;5946704;22;45171;-61
2023/09/24 15:02:30;;;;;;;2.22;0.50;;;22.20;72.50;;;;;;5921609;22;45506;-60
2023/09/24 15:07:39;;;;;;;1.02;0.43;;;22.20;72.70;;;;;;5938381;22;45094;-63
2023/09/24 15:10:07;;;;;;;2.20;0.52;;;22.20;72.40;;;;;;6023230;22;45163;-63
2023/09/24 15:12:55;;;;;;;2.65;0.55;;;22.20;72.30;;;;;;6012586;22;45267;-63
2023/09/24 15:18:03;;;;;;;1.17;0.50;;;22.20;72.20;;;;;;5997308;22;45294;-62
2023/09/24 15:23:32;;;;;;;1.38;0.65;;;22.20;72.10;;;;;;6006977;22;45543;-63
2023/09/24 15:25:59;;;;;;;1.33;0.50;;;22.20;72.20;;;;;;6032004;22;46492;-63
2023/09/24 15:28:43;;;;;;;1.08;0.45;;;22.20;72.30;;;;;;6017478;22;45016;-61
2023/09/24 15:31:10;;;;;;;1.45;0.60;;;22.20;72.50;;;;;;5951131;22;45215;-61
2023/09/24 15:34:04;;;;;;;1.30;0.63;;;22.30;72.60;;;;;;5990033;22;45228;-61
2023/09/24 15:36:32;;;;;;;1.77;0.68;;;22.30;72.60;;;;;;5911883;22;46000;-63
2023/09/24 15:38:59;;;;;;;1.05;0.60;;;22.30;72.60;;;;;;5959661;22;45013;-65
2023/09/24 15:41:49;;;;;;;1.10;0.52;;;22.30;72.60;;;;;;5922936;22;45299;-65
2023/09/24 15:44:22;;;;;;;1.65;0.40;;;22.30;72.50;;;;;;5910844;22;45030;-62
2023/09/24 15:46:51;;;;;;;0.80;0.50;;;22.30;72.20;;;;;;5965898;22;47260;-63
2023/09/24 15:49:51;;;;;;;1.20;0.57;;;22.30;71.60;;;;;;5986826;22;45279;-63
2023/09/24 15:55:54;;;;;;;0.90;0.60;;;22.30;71.10;;;;;;5922119;22;45411;-63
2023/09/24 15:58:21;;;;;;;0.93;0.55;;;22.30;70.60;;;;;;5946474;22;46207;-63
2023/09/24 16:03:52;;;;;;;1.15;0.43;;;22.30;70.70;;;;;;5947902;22;45490;-63
2023/09/24 16:06:18;;;;;;;1.55;0.47;;;22.30;70.70;;;;;;5932418;22;45472;-63
2023/09/24 16:09:29;;;;;;;2.10;0.50;;;22.30;70.90;;;;;;5903817;22;46358;-63
2023/09/24 16:12:16;;;;;;;0.60;0.47;;;22.30;70.90;;;;;;5969572;22;44852;-63
2023/09/24 16:15:05;;;;;;;0.80;0.50;;;22.30;70.80;;;;;;6015360;22;45206;-65
2023/09/24 16:21:21;;;;;;;0.55;0.52;;;22.30;70.20;;;;;;5930359;22;45773;-64
2023/09/24 16:24:12;;;;;;;0.80;0.43;;;22.30;70.30;;;;;;5965174;22;45067;-62
2023/09/24 16:26:42;;;;;;;1.58;0.50;;;22.30;70.40;;;;;;5950808;22;45440;-64